createdAt,value
2022-11-14T00:00:43.147Z,21.42
2022-11-14T00:03:28.176Z,21.41
2022-11-14T00:06:12.952Z,21.38
2022-11-14T00:08:57.855Z,21.40
2022-11-14T00:11:42.752Z,21.40
2022-11-14T00:14:27.757Z,21.37
2022-11-14T00:17:12.558Z,21.38
2022-11-14T00:19:57.458Z,21.32
2022-11-14T00:22:42.197Z,21.34
2022-11-14T00:25:27.176Z,21.34
2022-11-14T00:28:12.034Z,21.33
2022-11-14T00:30:56.923Z,21.32
2022-11-14T00:33:41.725Z,21.36
2022-11-14T00:36:26.481Z,21.32
2022-11-14T00:39:12.184Z,21.31
2022-11-14T00:41:57.119Z,21.32
2022-11-14T00:44:42.012Z,21.31
2022-11-14T00:47:26.766Z,21.30
2022-11-14T00:50:11.564Z,21.30
2022-11-14T00:52:56.385Z,21.28
2022-11-14T00:55:41.490Z,21.28
2022-11-14T00:58:26.275Z,21.28
2022-11-14T01:01:11.230Z,21.26
2022-11-14T01:03:56.103Z,21.26
2022-11-14T01:06:40.834Z,21.27
2022-11-14T01:09:25.840Z,21.26
2022-11-14T01:12:11.012Z,21.27
2022-11-14T01:14:55.761Z,21.26
2022-11-14T01:17:40.537Z,21.23
2022-11-14T01:20:25.334Z,21.22
2022-11-14T01:23:10.212Z,21.21
2022-11-14T01:25:54.977Z,21.21
2022-11-14T01:28:40.033Z,21.22
2022-11-14T01:31:25.117Z,21.20
2022-11-14T01:34:10.444Z,21.19
2022-11-14T01:36:55.020Z,21.19
2022-11-14T01:39:40.024Z,21.17
2022-11-14T01:42:27.356Z,21.18
2022-11-14T01:45:31.425Z,21.18
2022-11-14T01:48:20.412Z,21.18
2022-11-14T01:51:08.281Z,21.15
2022-11-14T01:53:54.328Z,21.14
2022-11-14T01:56:40.505Z,21.15
2022-11-14T01:59:26.039Z,21.13
2022-11-14T02:02:16.136Z,21.12
2022-11-14T02:05:03.172Z,21.12
2022-11-14T02:07:48.142Z,21.12
2022-11-14T02:10:32.945Z,21.12
2022-11-14T02:13:17.712Z,21.11
2022-11-14T02:16:02.611Z,21.09
2022-11-14T02:18:47.458Z,21.10
2022-11-14T02:21:32.365Z,21.09
2022-11-14T02:24:18.199Z,21.10
2022-11-14T02:27:04.289Z,21.11
2022-11-14T02:29:49.048Z,21.08
2022-11-14T02:32:57.126Z,21.08
2022-11-14T02:35:38.789Z,21.07
2022-11-14T02:38:23.563Z,21.07
2022-11-14T02:41:17.772Z,21.07
2022-11-14T02:44:02.898Z,21.06
2022-11-14T02:46:47.932Z,21.09
2022-11-14T02:49:33.023Z,21.05
2022-11-14T02:52:18.303Z,21.06
2022-11-14T02:55:03.677Z,21.04
2022-11-14T02:57:48.916Z,21.04
2022-11-14T03:00:33.907Z,21.07
2022-11-14T03:03:18.741Z,21.05
2022-11-14T03:06:03.698Z,21.04
2022-11-14T03:08:48.418Z,21.04
2022-11-14T03:11:33.308Z,21.03
2022-11-14T03:14:18.058Z,21.04
2022-11-14T03:17:02.895Z,21.01
2022-11-14T03:19:47.671Z,21.01
2022-11-14T03:22:32.434Z,21.01
2022-11-14T03:25:17.261Z,20.97
2022-11-14T03:28:02.091Z,21.00
2022-11-14T03:30:46.920Z,21.00
2022-11-14T03:33:32.106Z,21.00
2022-11-14T03:36:17.350Z,20.99
2022-11-14T03:39:02.477Z,21.00
2022-11-14T03:41:47.625Z,21.01
2022-11-14T03:44:32.465Z,20.95
2022-11-14T03:47:17.285Z,20.97
2022-11-14T03:50:02.099Z,20.97
2022-11-14T03:52:48.885Z,20.99
2022-11-14T03:55:34.147Z,21.02
2022-11-14T03:58:18.978Z,21.05
2022-11-14T04:01:03.942Z,21.06
2022-11-14T04:03:49.194Z,21.10
2022-11-14T04:06:34.051Z,21.11
2022-11-14T04:09:19.165Z,21.13
2022-11-14T04:12:04.150Z,21.14
2022-11-14T04:14:48.956Z,21.14
2022-11-14T04:17:39.496Z,21.14
2022-11-14T04:20:24.703Z,21.13
2022-11-14T04:23:09.599Z,21.12
2022-11-14T04:25:54.449Z,21.16
2022-11-14T04:28:39.194Z,21.15
2022-11-14T04:31:23.899Z,21.22
2022-11-14T04:34:49.211Z,21.10
2022-11-14T04:37:33.928Z,21.13
2022-11-14T04:40:18.911Z,21.16
2022-11-14T04:43:03.766Z,21.18
2022-11-14T04:45:48.705Z,21.18
2022-11-14T04:48:33.453Z,21.19
2022-11-14T04:51:18.367Z,21.20
2022-11-14T04:54:03.143Z,21.20
2022-11-14T04:56:47.905Z,21.23
2022-11-14T04:59:32.832Z,21.23
2022-11-14T05:02:17.617Z,21.25
2022-11-14T05:05:02.443Z,21.25
2022-11-14T05:07:47.261Z,21.24
2022-11-14T05:10:32.194Z,21.25
2022-11-14T05:13:16.961Z,21.24
2022-11-14T05:16:01.855Z,21.26
2022-11-14T05:18:47.207Z,21.24
2022-11-14T05:21:32.072Z,21.21
2022-11-14T05:24:16.814Z,21.23
2022-11-14T05:27:01.683Z,21.23
2022-11-14T05:29:46.710Z,21.25
2022-11-14T05:32:31.497Z,21.28
2022-11-14T05:35:16.420Z,21.27
2022-11-14T05:38:02.284Z,21.27
2022-11-14T05:40:47.245Z,21.29
2022-11-14T05:43:32.032Z,21.30
2022-11-14T05:46:17.070Z,21.29
2022-11-14T05:49:01.917Z,21.30
2022-11-14T05:51:46.836Z,21.30
2022-11-14T05:54:31.769Z,21.32
2022-11-14T05:57:16.558Z,21.31
2022-11-14T06:00:01.446Z,18.75
2022-11-14T06:02:46.172Z,18.12
2022-11-14T06:05:34.669Z,18.03
2022-11-14T06:08:20.590Z,18.89
2022-11-14T06:11:05.946Z,17.80
2022-11-14T06:14:00.850Z,17.59
2022-11-14T06:16:46.419Z,17.68
2022-11-14T06:19:32.550Z,19.63
2022-11-14T06:22:17.939Z,20.42
2022-11-14T06:25:03.417Z,20.73
2022-11-14T06:27:48.310Z,21.07
2022-11-14T06:30:33.582Z,21.28
2022-11-14T06:33:18.726Z,21.41
2022-11-14T06:36:04.462Z,21.49
2022-11-14T06:38:49.274Z,21.51
2022-11-14T06:41:34.612Z,21.49
2022-11-14T06:44:20.041Z,21.25
2022-11-14T06:47:04.889Z,21.28
2022-11-14T06:49:49.790Z,21.37
2022-11-14T06:52:34.556Z,21.47
2022-11-14T06:55:24.986Z,21.73
2022-11-14T06:58:10.637Z,21.89
2022-11-14T07:00:55.457Z,21.83
2022-11-14T07:03:43.584Z,21.89
2022-11-14T07:06:29.276Z,21.81
2022-11-14T07:09:14.391Z,21.66
2022-11-14T07:11:59.330Z,21.36
2022-11-14T07:14:44.233Z,20.65
2022-11-14T07:17:31.353Z,20.70
2022-11-14T07:20:18.501Z,21.20
2022-11-14T07:23:03.498Z,21.42
2022-11-14T07:25:48.679Z,21.45
2022-11-14T07:28:34.179Z,21.42
2022-11-14T07:31:19.494Z,21.30
2022-11-14T07:34:05.949Z,21.12
2022-11-14T07:36:50.757Z,21.15
2022-11-14T07:39:35.779Z,21.14
2022-11-14T07:42:20.785Z,21.11
2022-11-14T07:45:05.762Z,21.18
2022-11-14T07:47:53.790Z,21.31
2022-11-14T07:50:38.879Z,21.47
2022-11-14T07:53:24.303Z,21.62
2022-11-14T07:56:12.918Z,21.65
2022-11-14T07:58:58.014Z,21.45
2022-11-14T08:01:42.848Z,21.51
2022-11-14T08:04:27.617Z,21.74
2022-11-14T08:07:12.584Z,21.99
2022-11-14T08:09:57.464Z,22.05
2022-11-14T08:12:42.376Z,22.10
2022-11-14T08:15:27.257Z,22.12
2022-11-14T08:18:12.128Z,22.12
2022-11-14T08:20:57.652Z,22.20
2022-11-14T08:23:42.794Z,22.22
2022-11-14T08:26:31.537Z,22.15
2022-11-14T08:29:19.172Z,22.17
2022-11-14T08:32:04.118Z,22.19
2022-11-14T08:34:48.853Z,22.28
2022-11-14T08:37:33.679Z,22.26
2022-11-14T08:40:18.472Z,22.23
2022-11-14T08:43:03.408Z,22.31
2022-11-14T08:45:48.114Z,22.08
2022-11-14T08:48:33.445Z,21.97
2022-11-14T08:51:18.968Z,22.10
2022-11-14T08:54:03.898Z,22.13
2022-11-14T08:56:48.856Z,22.21
2022-11-14T08:59:33.569Z,22.15
2022-11-14T09:02:18.474Z,22.00
2022-11-14T09:05:03.202Z,21.96
2022-11-14T09:07:48.088Z,22.07
2022-11-14T09:10:33.034Z,22.09
2022-11-14T09:13:17.930Z,22.06
2022-11-14T09:16:02.938Z,22.05
2022-11-14T09:18:47.865Z,22.00
2022-11-14T09:21:32.808Z,22.06
2022-11-14T09:24:17.599Z,22.09
2022-11-14T09:27:02.987Z,22.11
2022-11-14T09:29:47.848Z,22.15
2022-11-14T09:32:32.710Z,22.14
2022-11-14T09:35:17.408Z,22.14
2022-11-14T09:38:02.529Z,22.14
2022-11-14T09:40:59.828Z,22.10
2022-11-14T09:43:55.220Z,21.92
2022-11-14T09:46:46.820Z,21.81
2022-11-14T09:49:34.650Z,21.83
2022-11-14T09:52:27.269Z,21.90
2022-11-14T09:55:13.437Z,22.09
2022-11-14T09:57:58.146Z,21.91
2022-11-14T10:00:47.401Z,22.04
2022-11-14T10:03:48.043Z,22.10
2022-11-14T10:06:33.666Z,22.29
2022-11-14T10:09:30.936Z,22.31
2022-11-14T10:12:22.912Z,22.30
2022-11-14T10:15:13.972Z,22.36
2022-11-14T10:18:19.517Z,22.32
2022-11-14T10:21:10.349Z,22.24
2022-11-14T10:24:14.007Z,22.35
2022-11-14T10:27:02.480Z,22.24
2022-11-14T10:30:08.828Z,22.27
2022-11-14T10:32:59.245Z,22.32
2022-11-14T10:35:55.253Z,22.28
2022-11-14T10:39:03.913Z,22.38
2022-11-14T10:42:00.717Z,22.44
2022-11-14T10:44:50.951Z,22.43
2022-11-14T10:47:40.219Z,22.38
2022-11-14T10:50:27.454Z,22.49
2022-11-14T10:53:14.991Z,22.64
2022-11-14T10:56:04.726Z,22.73
2022-11-14T10:58:50.511Z,22.82
2022-11-14T11:01:36.645Z,22.81
2022-11-14T11:04:28.711Z,22.80
2022-11-14T11:07:39.616Z,22.66
2022-11-14T11:10:43.583Z,22.79
2022-11-14T11:13:33.359Z,22.83
2022-11-14T11:16:19.739Z,22.69
2022-11-14T11:19:26.264Z,22.79
2022-11-14T11:22:25.134Z,22.49
2022-11-14T11:25:21.967Z,22.48
2022-11-14T11:28:13.988Z,22.54
2022-11-14T11:31:00.422Z,22.54
2022-11-14T11:33:45.383Z,22.56
2022-11-14T11:36:30.277Z,22.59
2022-11-14T11:39:27.337Z,22.58
2022-11-14T11:42:17.425Z,22.51
2022-11-14T11:45:03.422Z,22.30
2022-11-14T11:48:08.727Z,22.32
2022-11-14T11:50:53.537Z,22.37
2022-11-14T11:53:39.638Z,22.30
2022-11-14T11:56:30.441Z,22.29
2022-11-14T11:59:25.015Z,22.41
2022-11-14T12:02:21.119Z,22.52
2022-11-14T12:05:06.425Z,22.57
2022-11-14T12:07:59.621Z,22.63
2022-11-14T12:10:45.792Z,22.53
2022-11-14T12:13:50.364Z,22.35
2022-11-14T12:16:50.655Z,22.30
2022-11-14T12:19:39.043Z,22.26
2022-11-14T12:22:30.038Z,22.22
2022-11-14T12:25:27.146Z,22.24
2022-11-14T12:28:30.883Z,22.21
2022-11-14T12:31:16.897Z,22.19
2022-11-14T12:34:13.882Z,22.18
2022-11-14T12:36:58.679Z,22.23
2022-11-14T12:39:43.632Z,22.14
2022-11-14T12:42:28.622Z,22.21
2022-11-14T12:45:32.175Z,22.20
2022-11-14T12:48:26.157Z,22.22
2022-11-14T12:51:26.607Z,22.50
2022-11-14T12:54:30.422Z,22.71
2022-11-14T12:57:37.760Z,22.76
2022-11-14T13:00:22.952Z,22.80
2022-11-14T13:03:20.261Z,22.78
2022-11-14T13:06:11.634Z,22.79
2022-11-14T13:09:02.747Z,22.79
2022-11-14T13:12:06.492Z,22.82
2022-11-14T13:15:10.925Z,22.72
2022-11-14T13:18:21.316Z,22.63
2022-11-14T13:21:34.501Z,22.65
2022-11-14T13:24:19.622Z,22.63
2022-11-14T13:27:39.240Z,22.64
2022-11-14T13:30:54.053Z,22.49
2022-11-14T13:33:39.897Z,22.36
2022-11-14T13:36:34.890Z,22.31
2022-11-14T13:39:38.940Z,22.26
2022-11-14T13:42:46.670Z,22.24
2022-11-14T13:45:37.957Z,22.29
2022-11-14T13:48:29.203Z,22.23
2022-11-14T13:51:41.621Z,22.23
2022-11-14T13:54:19.921Z,22.23
2022-11-14T13:57:20.965Z,22.23
2022-11-14T14:00:18.438Z,22.22
2022-11-14T14:03:31.594Z,22.22
2022-11-14T14:06:20.930Z,22.21
2022-11-14T14:09:32.306Z,22.22
2022-11-14T14:12:26.238Z,22.23
2022-11-14T14:15:14.312Z,22.11
2022-11-14T14:18:05.725Z,21.92
2022-11-14T14:21:08.819Z,21.65
2022-11-14T14:24:05.864Z,21.75
2022-11-14T14:26:57.515Z,20.66
2022-11-14T14:29:45.688Z,19.83
2022-11-14T14:32:30.581Z,19.62
2022-11-14T14:35:25.328Z,19.43
2022-11-14T14:38:13.878Z,20.26
2022-11-14T14:40:58.957Z,21.24
2022-11-14T14:43:44.620Z,21.49
2022-11-14T14:46:30.314Z,21.56
2022-11-14T14:49:18.854Z,21.77
2022-11-14T14:52:18.751Z,22.01
2022-11-14T14:55:04.394Z,22.06
2022-11-14T14:57:49.435Z,22.26
2022-11-14T15:00:34.391Z,22.11
2022-11-14T15:03:19.225Z,22.17
2022-11-14T15:06:05.314Z,22.35
2022-11-14T15:08:50.361Z,22.39
2022-11-14T15:11:35.585Z,22.31
2022-11-14T15:14:21.953Z,22.29
2022-11-14T15:17:06.995Z,22.31
2022-11-14T15:19:52.195Z,22.50
2022-11-14T15:22:37.354Z,22.55
2022-11-14T15:25:22.312Z,22.41
2022-11-14T15:28:14.003Z,22.52
2022-11-14T15:30:59.712Z,22.40
2022-11-14T15:33:45.060Z,22.51
2022-11-14T15:36:29.993Z,22.44
2022-11-14T15:39:27.445Z,22.36
2022-11-14T15:42:24.417Z,22.54
2022-11-14T15:45:21.584Z,22.56
2022-11-14T15:48:11.680Z,22.50
2022-11-14T15:50:56.531Z,22.43
2022-11-14T15:53:48.017Z,22.40
2022-11-14T15:56:33.814Z,22.54
2022-11-14T15:59:18.630Z,22.38
2022-11-14T16:02:10.765Z,22.56
2022-11-14T16:04:56.054Z,22.61
2022-11-14T16:07:40.838Z,22.63
2022-11-14T16:10:26.461Z,22.53
2022-11-14T16:13:11.516Z,22.46
2022-11-14T16:15:56.356Z,22.58
2022-11-14T16:18:41.241Z,22.28
2022-11-14T16:21:26.170Z,22.43
2022-11-14T16:24:15.961Z,22.47
2022-11-14T16:27:01.049Z,22.38
2022-11-14T16:29:45.930Z,22.32
2022-11-14T16:32:30.745Z,22.37
2022-11-14T16:35:17.085Z,22.40
2022-11-14T16:38:01.936Z,22.42
2022-11-14T16:40:46.860Z,22.38
2022-11-14T16:43:32.029Z,22.38
2022-11-14T16:46:17.157Z,22.36
2022-11-14T16:49:02.121Z,22.38
2022-11-14T16:51:49.163Z,22.36
2022-11-14T16:54:34.611Z,22.27
2022-11-14T16:57:19.484Z,22.23
2022-11-14T17:00:04.914Z,22.35
2022-11-14T17:02:49.805Z,22.41
2022-11-14T17:05:35.479Z,22.45
2022-11-14T17:08:20.373Z,22.50
2022-11-14T17:11:09.328Z,22.53
2022-11-14T17:13:54.393Z,22.55
2022-11-14T17:16:39.272Z,22.48
2022-11-14T17:19:24.192Z,22.43
2022-11-14T17:22:09.072Z,22.40
2022-11-14T17:24:53.954Z,22.34
2022-11-14T17:27:38.774Z,22.34
2022-11-14T17:30:23.802Z,22.36
2022-11-14T17:33:09.364Z,22.42
2022-11-14T17:35:54.578Z,22.38
2022-11-14T17:38:40.101Z,22.47
2022-11-14T17:41:24.884Z,22.53
2022-11-14T17:44:09.885Z,22.59
2022-11-14T17:46:54.656Z,22.54
2022-11-14T17:49:39.547Z,22.45
2022-11-14T17:52:24.257Z,22.46
2022-11-14T17:55:09.270Z,22.54
2022-11-14T17:57:54.123Z,22.58
2022-11-14T18:00:38.819Z,22.40
2022-11-14T18:03:23.729Z,22.46
2022-11-14T18:06:08.934Z,22.56
2022-11-14T18:08:53.956Z,22.59
2022-11-14T18:11:39.629Z,22.64
2022-11-14T18:14:24.727Z,22.56
2022-11-14T18:17:13.559Z,22.73
2022-11-14T18:20:00.689Z,22.78
2022-11-14T18:22:45.754Z,22.72
2022-11-14T18:25:31.449Z,22.62
2022-11-14T18:28:16.550Z,22.53
2022-11-14T18:31:03.424Z,22.50
2022-11-14T18:33:48.428Z,22.55
2022-11-14T18:36:33.349Z,22.47
2022-11-14T18:39:18.188Z,22.30
2022-11-14T18:42:03.089Z,20.07
2022-11-14T18:44:48.525Z,19.60
2022-11-14T18:47:33.366Z,20.75
2022-11-14T18:50:18.340Z,21.57
2022-11-14T18:53:03.145Z,22.01
2022-11-14T18:55:53.066Z,21.90
2022-11-14T18:58:39.817Z,21.93
2022-11-14T19:01:26.092Z,21.92
2022-11-14T19:04:11.005Z,21.92
2022-11-14T19:06:56.387Z,21.89
2022-11-14T19:09:44.162Z,21.93
2022-11-14T19:12:29.117Z,21.93
2022-11-14T19:15:13.819Z,22.09
2022-11-14T19:17:58.719Z,21.98
2022-11-14T19:20:43.533Z,21.98
2022-11-14T19:23:28.603Z,22.11
2022-11-14T19:26:13.723Z,22.31
2022-11-14T19:29:01.857Z,22.23
2022-11-14T19:31:47.153Z,22.12
2022-11-14T19:34:32.104Z,22.12
2022-11-14T19:37:17.041Z,22.12
2022-11-14T19:40:02.003Z,22.14
2022-11-14T19:42:46.674Z,22.10
2022-11-14T19:45:33.313Z,22.11
2022-11-14T19:48:18.315Z,22.11
2022-11-14T19:51:07.039Z,22.11
2022-11-14T19:53:53.261Z,22.09
2022-11-14T19:56:38.101Z,22.08
2022-11-14T19:59:24.824Z,21.99
2022-11-14T20:02:13.484Z,21.93
2022-11-14T20:04:58.361Z,22.00
2022-11-14T20:07:43.517Z,21.99
2022-11-14T20:10:28.495Z,22.01
2022-11-14T20:13:13.976Z,22.01
2022-11-14T20:15:59.840Z,22.01
2022-11-14T20:18:45.657Z,22.00
2022-11-14T20:21:31.219Z,21.99
2022-11-14T20:24:21.316Z,22.00
2022-11-14T20:27:06.128Z,21.96
2022-11-14T20:29:50.857Z,21.97
2022-11-14T20:32:35.847Z,21.95
2022-11-14T20:35:20.683Z,21.95
2022-11-14T20:38:05.890Z,21.96
2022-11-14T20:40:54.915Z,21.97
2022-11-14T20:43:39.911Z,21.99
2022-11-14T20:46:24.902Z,21.99
2022-11-14T20:49:10.293Z,21.96
2022-11-14T20:51:55.101Z,21.96
2022-11-14T20:54:39.937Z,21.90
2022-11-14T20:57:24.791Z,21.89
2022-11-14T21:00:10.848Z,21.90
2022-11-14T21:02:59.034Z,21.90
2022-11-14T21:05:44.167Z,21.96
2022-11-14T21:08:31.401Z,21.97
2022-11-14T21:11:20.999Z,21.97
2022-11-14T21:14:09.161Z,21.93
2022-11-14T21:16:54.532Z,21.92
2022-11-14T21:19:39.418Z,21.90
2022-11-14T21:22:27.424Z,21.91
2022-11-14T21:25:12.704Z,21.90
2022-11-14T21:27:58.146Z,21.95
2022-11-14T21:30:44.164Z,21.95
2022-11-14T21:33:30.696Z,21.95
2022-11-14T21:39:24.914Z,21.96
2022-11-14T21:42:13.035Z,21.97
2022-11-14T21:45:02.335Z,21.95
2022-11-14T21:47:47.471Z,21.95
2022-11-14T21:50:32.517Z,21.95
2022-11-14T21:53:17.535Z,21.96
2022-11-14T21:56:16.489Z,21.95
2022-11-14T21:59:14.886Z,21.97
2022-11-14T22:02:19.267Z,21.97
2022-11-14T22:05:04.224Z,21.93
2022-11-14T22:07:49.450Z,21.92
2022-11-14T22:10:34.331Z,21.90
2022-11-14T22:13:24.507Z,21.89
2022-11-14T22:16:19.423Z,21.88
2022-11-14T22:19:05.586Z,21.86
2022-11-14T22:21:50.697Z,21.85
2022-11-14T22:24:38.619Z,21.83
2022-11-14T22:27:23.606Z,21.83
2022-11-14T22:30:08.759Z,21.80
2022-11-14T22:32:53.903Z,21.80
2022-11-14T22:35:38.728Z,21.80
2022-11-14T22:38:23.549Z,21.79
2022-11-14T22:41:12.226Z,21.81
2022-11-14T22:43:57.496Z,21.79
2022-11-14T22:46:42.728Z,21.79
2022-11-14T22:49:27.558Z,21.79
2022-11-14T22:52:12.436Z,21.78
2022-11-14T22:54:57.258Z,21.77
2022-11-14T22:57:42.121Z,21.77
2022-11-14T23:00:26.981Z,21.75
2022-11-14T23:03:16.196Z,21.73
2022-11-14T23:06:10.450Z,21.73
2022-11-14T23:08:55.491Z,21.72
2022-11-14T23:11:40.659Z,21.72
2022-11-14T23:14:25.610Z,21.70
2022-11-14T23:17:10.564Z,21.67
2022-11-14T23:19:55.328Z,21.70
2022-11-14T23:22:40.939Z,21.69
2022-11-14T23:25:26.369Z,21.69
2022-11-14T23:28:11.413Z,21.69
2022-11-14T23:30:56.890Z,21.67
2022-11-14T23:33:41.932Z,21.66
2022-11-14T23:36:26.793Z,21.65
2022-11-14T23:39:11.632Z,21.64
2022-11-14T23:41:56.574Z,21.63
2022-11-14T23:44:41.361Z,21.62
2022-11-14T23:47:26.236Z,21.61
2022-11-14T23:50:11.009Z,21.59
2022-11-14T23:52:55.755Z,21.60
2022-11-14T23:55:41.966Z,21.58
2022-11-14T23:58:27.295Z,21.59
